Gabriella — OJHP — position and weather

sailwx.info

Track history (hours):
 
Tides and Currents Weather Stations Pressure Air Temp Water Temp Dewpoint Dewpoint Depression Visibility Wind Speed Wind Dir Waves Ship Positions

Gabriella

Last reported at 2016-Apr-30 12:32 UTC. Time now 2016-Apr-30 13:06 UTC.
Position N 59°19' E 018°06'.

Length 172 m; draft 6.5 m.

Type: Ship (hazmat cat A). MMSI: 230361000.

Date/timePositionNaut miles runAvg speedWind from/ knotsBaromVisibWave heightAir tempDewpointWater temp
2016-Apr-30 12:32N 59°19' E 018°06'0 0.0
2016-Apr-30 11:32N 59°19' E 018°06'0 0.0
2016-Apr-30 10:29N 59°19' E 018°06'0 0.0
2016-Apr-30 09:29N 59°19' E 018°06'0 0.0
2016-Apr-30 08:32N 59°19' E 018°06'3 2.9
2016-Apr-30 07:33N 59°20' E 018°11'91 9.7
2016-Apr-29 22:12N 59°37' E 021°07'1117.3
2016-Apr-29 21:33N 59°34' E 021°29'1717.2
2016-Apr-29 20:33N 59°33' E 022°02'2317.7
2016-Apr-29 19:14N 59°38' E 022°47'1217.3
2016-Apr-29 18:33N 59°40' E 023°11'1717.4
2016-Apr-29 17:33N 59°44' E 023°44'1717.4
2016-Apr-29 16:33N 59°49' E 024°17'1817.5
2016-Apr-29 15:33N 59°57' E 024°48'10 1.0
2016-Apr-29 05:33N 59°53' E 024°31'1818.3
2016-Apr-29 04:33N 59°46' E 023°57'1818.4
2016-Apr-29 03:33N 59°42' E 023°22'3718.3
2016-Apr-29 01:33N 59°34' E 022°11'1818.1
2016-Apr-29 00:34N 59°33' E 021°35'2018.3
2016-Apr-28 23:29N 59°37' E 020°57'7710.9
2016-Apr-28 16:25N 59°28' E 018°26'8 6.5
2016-Apr-28 15:13N 59°22' E 018°18'710.0
2016-Apr-28 14:34N 59°19' E 018°06'0 0.0
2016-Apr-28 13:31N 59°19' E 018°06'0 0.0
2016-Apr-28 12:22N 59°19' E 018°06'0 0.0
2016-Apr-28 11:28N 59°19' E 018°06'0 0.0
2016-Apr-28 10:31N 59°19' E 018°06'0 0.0
2016-Apr-28 09:28N 59°19' E 018°06'0 0.0
2016-Apr-28 08:22N 59°19' E 018°06'2 3.0
2016-Apr-28 07:34N 59°19' E 018°11'86 9.5
2016-Apr-27 22:27N 59°38' E 020°56'1616.7
2016-Apr-27 21:31N 59°34' E 021°26'1516.3
2016-Apr-27 20:33N 59°32' E 021°56'3517.5
2016-Apr-27 18:33N 59°39' E 023°04'2121.3
2016-Apr-27 17:33N 59°44' E 023°44'3916.9
2016-Apr-27 15:15N 60°00' E 024°55'23 2.1
2016-Apr-27 04:20N 59°49' E 024°16'1620.0
2016-Apr-27 03:33N 59°45' E 023°45'2020.0
2016-Apr-27 02:33N 59°40' E 023°07'2620.1
2016-Apr-27 01:16N 59°34' E 022°17'1419.9
2016-Apr-27 00:33N 59°32' E 021°50'2020.1
2016-Apr-26 23:33N 59°35' E 021°10'8411.3
2016-Apr-26 16:09N 59°27' E 018°26'5 9.1
2016-Apr-26 15:33N 59°22' E 018°27'1010.0
2016-Apr-26 14:33N 59°19' E 018°08'1 0.8
2016-Apr-26 13:15N 59°19' E 018°06'0 0.0
2016-Apr-26 12:30N 59°19' E 018°06'0 0.0
2016-Apr-26 11:27N 59°19' E 018°06'0 0.0
2016-Apr-26 10:33N 59°19' E 018°06'0 0.0
2016-Apr-26 09:33N 59°19' E 018°06'0 0.0
2016-Apr-26 08:33N 59°19' E 018°06'3 2.8
2016-Apr-26 07:33N 59°20' E 018°11'90 9.7
2016-Apr-25 22:13N 59°37' E 021°06'1117.4
2016-Apr-25 21:33N 59°34' E 021°28'1717.1
2016-Apr-25 20:33N 59°33' E 022°01'3517.5
2016-Apr-25 18:32N 59°40' E 023°09'1717.3
2016-Apr-25 17:33N 59°44' E 023°42'20 1.6
2016-Apr-25 05:11N 59°50' E 024°21'1218.2
2016-Apr-25 04:33N 59°47' E 023°59'1818.1
2016-Apr-25 03:33N 59°42' E 023°24'3918.2
2016-Apr-25 01:26N 59°34' E 022°09'1618.0
2016-Apr-25 00:33N 59°33' E 021°38'9810.9
2016-Apr-24 15:33N 59°22' E 018°27'1010.0
2016-Apr-24 14:33N 59°19' E 018°08'1 1.0
2016-Apr-24 13:33N 59°19' E 018°06'0 0.0
2016-Apr-24 12:33N 59°19' E 018°06'0 0.0
2016-Apr-24 11:33N 59°19' E 018°06'0 0.0
2016-Apr-24 10:33N 59°19' E 018°06'0 0.0
2016-Apr-24 09:33N 59°19' E 018°06'0 0.0
2016-Apr-24 08:33N 59°19' E 018°06'2 2.4
2016-Apr-24 07:33N 59°19' E 018°10'88 9.6
2016-Apr-23 22:24N 59°38' E 020°59'1517.3
2016-Apr-23 21:33N 59°34' E 021°27'1717.0
2016-Apr-23 20:34N 59°32' E 022°00'3517.3
2016-Apr-23 18:33N 59°39' E 023°07'1717.6
2016-Apr-23 17:33N 59°44' E 023°41'8 0.6
2016-Apr-23 04:33N 59°46' E 023°55'5719.0
2016-Apr-23 01:33N 59°33' E 022°06'1918.9
2016-Apr-23 00:33N 59°33' E 021°28'9311.6
2016-Apr-22 16:33N 59°27' E 018°26'7 6.3
2016-Apr-22 15:30N 59°22' E 018°18'7 6.9
2016-Apr-22 14:32N 59°19' E 018°06'0 0.0
2016-Apr-22 13:11N 59°19' E 018°06'0 0.0
2016-Apr-22 11:26N 59°19' E 018°06'0 0.0
2016-Apr-22 10:32N 59°19' E 018°06'0 0.0
2016-Apr-22 09:26N 59°19' E 018°06'2 2.6
2016-Apr-22 08:33N 59°19' E 018°10'9710.7
2016-Apr-21 23:33N 59°36' E 021°18'2120.6
2016-Apr-21 22:33N 59°32' E 021°58'2920.8
2016-Apr-21 21:10N 59°38' E 022°54'1320.8
2016-Apr-21 20:33N 59°41' E 023°18'1918.8
2016-Apr-21 19:33N 59°46' E 023°54'5 0.4
2016-Apr-21 07:33N 59°44' E 024°02'2121.0
2016-Apr-21 06:32N 59°34' E 023°24'2021.0
2016-Apr-21 05:33N 59°27' E 022°46'2620.7
2016-Apr-21 04:19N 59°13' E 022°04'28720.4
2016-Apr-20 14:11N 55°47' E 015°51'1620.4
2016-Apr-20 13:24N 55°39' E 015°26'1720.5
2016-Apr-20 12:33N 55°31' E 014°60'  
Track history (hours):
 
Tides and Currents Weather Stations Pressure Air Temp Water Temp Dewpoint Dewpoint Depression Visibility Wind Speed Wind Dir Waves Ship Positions

Gabriella

Last reported at 2016-Apr-30 12:32 UTC. Time now 2016-Apr-30 13:06 UTC.
Position N 59°19' E 018°06'.

Length 172 m; draft 6.5 m.

Type: Ship (hazmat cat A). MMSI: 230361000.

Date/timePositionNaut miles runAvg speedWind from/ knotsBaromVisibWave heightAir tempDewpointWater temp
2016-Apr-30 12:32N 59°19' E 018°06'0 0.0
2016-Apr-30 11:32N 59°19' E 018°06'0 0.0
2016-Apr-30 10:29N 59°19' E 018°06'0 0.0
2016-Apr-30 09:29N 59°19' E 018°06'0 0.0
2016-Apr-30 08:32N 59°19' E 018°06'3 2.9
2016-Apr-30 07:33N 59°20' E 018°11'91 9.7
2016-Apr-29 22:12N 59°37' E 021°07'1117.3
2016-Apr-29 21:33N 59°34' E 021°29'1717.2
2016-Apr-29 20:33N 59°33' E 022°02'2317.7
2016-Apr-29 19:14N 59°38' E 022°47'1217.3
2016-Apr-29 18:33N 59°40' E 023°11'1717.4
2016-Apr-29 17:33N 59°44' E 023°44'1717.4
2016-Apr-29 16:33N 59°49' E 024°17'1817.5
2016-Apr-29 15:33N 59°57' E 024°48'10 1.0
2016-Apr-29 05:33N 59°53' E 024°31'1818.3
2016-Apr-29 04:33N 59°46' E 023°57'1818.4
2016-Apr-29 03:33N 59°42' E 023°22'3718.3
2016-Apr-29 01:33N 59°34' E 022°11'1818.1
2016-Apr-29 00:34N 59°33' E 021°35'2018.3
2016-Apr-28 23:29N 59°37' E 020°57'7710.9
2016-Apr-28 16:25N 59°28' E 018°26'8 6.5
2016-Apr-28 15:13N 59°22' E 018°18'710.0
2016-Apr-28 14:34N 59°19' E 018°06'0 0.0
2016-Apr-28 13:31N 59°19' E 018°06'0 0.0
2016-Apr-28 12:22N 59°19' E 018°06'0 0.0
2016-Apr-28 11:28N 59°19' E 018°06'0 0.0
2016-Apr-28 10:31N 59°19' E 018°06'0 0.0
2016-Apr-28 09:28N 59°19' E 018°06'0 0.0
2016-Apr-28 08:22N 59°19' E 018°06'2 3.0
2016-Apr-28 07:34N 59°19' E 018°11'86 9.5
2016-Apr-27 22:27N 59°38' E 020°56'1616.7
2016-Apr-27 21:31N 59°34' E 021°26'1516.3
2016-Apr-27 20:33N 59°32' E 021°56'3517.5
2016-Apr-27 18:33N 59°39' E 023°04'2121.3
2016-Apr-27 17:33N 59°44' E 023°44'3916.9
2016-Apr-27 15:15N 60°00' E 024°55'23 2.1
2016-Apr-27 04:20N 59°49' E 024°16'1620.0
2016-Apr-27 03:33N 59°45' E 023°45'2020.0
2016-Apr-27 02:33N 59°40' E 023°07'2620.1
2016-Apr-27 01:16N 59°34' E 022°17'1419.9
2016-Apr-27 00:33N 59°32' E 021°50'2020.1
2016-Apr-26 23:33N 59°35' E 021°10'8411.3
2016-Apr-26 16:09N 59°27' E 018°26'5 9.1
2016-Apr-26 15:33N 59°22' E 018°27'1010.0
2016-Apr-26 14:33N 59°19' E 018°08'1 0.8
2016-Apr-26 13:15N 59°19' E 018°06'0 0.0
2016-Apr-26 12:30N 59°19' E 018°06'0 0.0
2016-Apr-26 11:27N 59°19' E 018°06'0 0.0
2016-Apr-26 10:33N 59°19' E 018°06'0 0.0
2016-Apr-26 09:33N 59°19' E 018°06'0 0.0
2016-Apr-26 08:33N 59°19' E 018°06'3 2.8
2016-Apr-26 07:33N 59°20' E 018°11'90 9.7
2016-Apr-25 22:13N 59°37' E 021°06'1117.4
2016-Apr-25 21:33N 59°34' E 021°28'1717.1
2016-Apr-25 20:33N 59°33' E 022°01'3517.5
2016-Apr-25 18:32N 59°40' E 023°09'1717.3
2016-Apr-25 17:33N 59°44' E 023°42'20 1.6
2016-Apr-25 05:11N 59°50' E 024°21'1218.2
2016-Apr-25 04:33N 59°47' E 023°59'1818.1
2016-Apr-25 03:33N 59°42' E 023°24'3918.2
2016-Apr-25 01:26N 59°34' E 022°09'1618.0
2016-Apr-25 00:33N 59°33' E 021°38'9810.9
2016-Apr-24 15:33N 59°22' E 018°27'1010.0
2016-Apr-24 14:33N 59°19' E 018°08'1 1.0
2016-Apr-24 13:33N 59°19' E 018°06'0 0.0
2016-Apr-24 12:33N 59°19' E 018°06'0 0.0
2016-Apr-24 11:33N 59°19' E 018°06'0 0.0
2016-Apr-24 10:33N 59°19' E 018°06'0 0.0
2016-Apr-24 09:33N 59°19' E 018°06'0 0.0
2016-Apr-24 08:33N 59°19' E 018°06'2 2.4
2016-Apr-24 07:33N 59°19' E 018°10'88 9.6
2016-Apr-23 22:24N 59°38' E 020°59'1517.3
2016-Apr-23 21:33N 59°34' E 021°27'1717.0
2016-Apr-23 20:34N 59°32' E 022°00'3517.3
2016-Apr-23 18:33N 59°39' E 023°07'1717.6
2016-Apr-23 17:33N 59°44' E 023°41'8 0.6
2016-Apr-23 04:33N 59°46' E 023°55'5719.0
2016-Apr-23 01:33N 59°33' E 022°06'1918.9
2016-Apr-23 00:33N 59°33' E 021°28'9311.6
2016-Apr-22 16:33N 59°27' E 018°26'7 6.3
2016-Apr-22 15:30N 59°22' E 018°18'7 6.9
2016-Apr-22 14:32N 59°19' E 018°06'0 0.0
2016-Apr-22 13:11N 59°19' E 018°06'0 0.0
2016-Apr-22 11:26N 59°19' E 018°06'0 0.0
2016-Apr-22 10:32N 59°19' E 018°06'0 0.0
2016-Apr-22 09:26N 59°19' E 018°06'2 2.6
2016-Apr-22 08:33N 59°19' E 018°10'9710.7
2016-Apr-21 23:33N 59°36' E 021°18'2120.6
2016-Apr-21 22:33N 59°32' E 021°58'2920.8
2016-Apr-21 21:10N 59°38' E 022°54'1320.8
2016-Apr-21 20:33N 59°41' E 023°18'1918.8
2016-Apr-21 19:33N 59°46' E 023°54'5 0.4
2016-Apr-21 07:33N 59°44' E 024°02'2121.0
2016-Apr-21 06:32N 59°34' E 023°24'2021.0
2016-Apr-21 05:33N 59°27' E 022°46'2620.7
2016-Apr-21 04:19N 59°13' E 022°04'28720.4
2016-Apr-20 14:11N 55°47' E 015°51'1620.4
2016-Apr-20 13:24N 55°39' E 015°26'1720.5
2016-Apr-20 12:33N 55°31' E 014°60'  

Dump ship's entire track history